Pacific Grove, California
Current Conditions -  °F | °C
As of 3:54 PM on Thursday 18 Dec 2014 (Local Time) from KMRY Reporting Station
Scattered Clouds Scattered Clouds  
Wind Chill: 59°   Ceiling: Unl
Heat Index: 59°   Visibility: 10mi
Dew Point: 51°   Wind: 0mph
Humidity: 75%   Direction: NA
Pressure: 30.15"   Gusts: NA
Location:  36.62°N, 121.91°W
Report Text: KMRY 182354Z 00000KT 10SM SCT020 15/11 A3015 RMK AO2 SLP222 T01500106 10167 20133 55003
Loading
Personal Weather Stations






























Interactive Weather Map New forecast layout! Learn more

10-Day Weather Forecast

Advertisements
Track Severe Weather on mobile